createdAt,value
2018-08-27T00:01:49.672Z,11.90
2018-08-27T00:04:19.309Z,11.80
2018-08-27T00:06:47.836Z,11.80
2018-08-27T00:09:16.429Z,11.70
2018-08-27T00:11:45.009Z,11.70
2018-08-27T00:14:13.660Z,11.60
2018-08-27T00:16:42.303Z,11.50
2018-08-27T00:19:10.864Z,11.40
2018-08-27T00:21:39.524Z,11.50
2018-08-27T00:24:08.079Z,11.50
2018-08-27T00:26:36.694Z,11.50
2018-08-27T00:29:05.277Z,11.50
2018-08-27T00:31:33.897Z,11.40
2018-08-27T00:34:02.501Z,11.50
2018-08-27T00:36:31.115Z,11.50
2018-08-27T00:38:59.709Z,11.50
2018-08-27T00:41:28.326Z,11.50
2018-08-27T00:43:56.844Z,11.50
2018-08-27T00:46:25.411Z,11.60
2018-08-27T00:48:53.986Z,11.60
2018-08-27T00:51:22.583Z,11.60
2018-08-27T00:53:51.199Z,11.70
2018-08-27T00:56:19.815Z,11.70
2018-08-27T00:58:48.484Z,11.80
2018-08-27T01:01:17.076Z,11.80
2018-08-27T01:03:45.635Z,11.80
2018-08-27T01:06:14.371Z,11.90
2018-08-27T01:08:42.920Z,12.00
2018-08-27T01:11:11.458Z,12.10
2018-08-27T01:13:40.024Z,12.10
2018-08-27T01:16:08.754Z,12.20
2018-08-27T01:18:37.418Z,12.30
2018-08-27T01:21:06.434Z,12.30
2018-08-27T01:23:35.092Z,12.30
2018-08-27T01:26:03.619Z,12.30
2018-08-27T01:28:32.284Z,12.30
2018-08-27T01:31:00.864Z,12.40
2018-08-27T01:33:29.429Z,12.50
2018-08-27T01:35:58.052Z,12.50
2018-08-27T01:38:26.683Z,12.50
2018-08-27T01:40:55.224Z,12.60
2018-08-27T01:43:23.822Z,12.70
2018-08-27T01:45:52.415Z,12.70
2018-08-27T01:48:22.029Z,12.80
2018-08-27T01:50:50.641Z,12.80
2018-08-27T01:53:19.325Z,12.90
2018-08-27T01:55:47.875Z,13.00
2018-08-27T01:58:16.509Z,13.10
2018-08-27T02:00:45.031Z,13.10
2018-08-27T02:03:15.698Z,13.20
2018-08-27T02:05:44.242Z,13.20
2018-08-27T02:08:12.837Z,13.20
2018-08-27T02:10:41.429Z,13.20
2018-08-27T02:13:10.010Z,13.20
2018-08-27T02:15:38.679Z,13.10
2018-08-27T02:18:07.294Z,13.10
2018-08-27T02:20:35.941Z,13.20
2018-08-27T02:23:04.773Z,13.20
2018-08-27T02:25:33.415Z,13.30
2018-08-27T02:28:01.913Z,13.30
2018-08-27T02:30:30.544Z,13.40
2018-08-27T02:32:59.125Z,13.30
2018-08-27T02:35:27.697Z,13.30
2018-08-27T02:37:56.353Z,13.30
2018-08-27T02:40:24.891Z,13.40
2018-08-27T02:42:53.609Z,13.40
2018-08-27T02:45:22.236Z,13.40
2018-08-27T02:47:50.853Z,13.30
2018-08-27T02:50:19.443Z,13.40
2018-08-27T02:52:48.020Z,13.50
2018-08-27T02:55:16.599Z,13.50
2018-08-27T02:57:45.132Z,13.50
2018-08-27T03:00:13.855Z,13.50
2018-08-27T03:02:42.481Z,13.60
2018-08-27T03:05:11.049Z,13.40
2018-08-27T03:07:39.602Z,13.40
2018-08-27T03:10:08.263Z,13.40
2018-08-27T03:12:36.850Z,13.40
2018-08-27T03:15:05.911Z,13.40
2018-08-27T03:17:34.487Z,13.50
2018-08-27T03:20:03.747Z,13.40
2018-08-27T03:22:32.338Z,13.50
2018-08-27T03:25:00.997Z,13.60
2018-08-27T03:27:29.584Z,13.60
2018-08-27T03:29:58.146Z,13.60
2018-08-27T03:32:26.769Z,13.60
2018-08-27T03:34:55.359Z,13.60
2018-08-27T03:37:23.994Z,13.60
2018-08-27T03:39:52.566Z,13.60
2018-08-27T03:42:21.146Z,13.70
2018-08-27T03:44:49.800Z,13.70
2018-08-27T03:47:18.674Z,13.70
2018-08-27T03:49:47.244Z,13.70
2018-08-27T03:52:15.806Z,13.80
2018-08-27T03:54:44.441Z,13.80
2018-08-27T03:57:13.024Z,13.80
2018-08-27T03:59:41.720Z,13.80
2018-08-27T04:02:10.250Z,13.80
2018-08-27T04:04:38.851Z,13.90
2018-08-27T04:07:07.476Z,14.00
2018-08-27T04:09:36.268Z,14.00
2018-08-27T04:12:05.167Z,14.00
2018-08-27T04:14:34.097Z,14.00
2018-08-27T04:17:02.832Z,14.00
2018-08-27T04:19:31.667Z,14.00
2018-08-27T04:22:00.529Z,13.90
2018-08-27T04:24:29.416Z,13.90
2018-08-27T04:26:58.198Z,14.00
2018-08-27T04:29:26.968Z,14.10
2018-08-27T04:31:55.880Z,14.10
2018-08-27T04:34:24.704Z,14.00
2018-08-27T04:36:53.482Z,13.90
2018-08-27T04:39:22.045Z,14.00
2018-08-27T04:41:50.621Z,13.90
2018-08-27T04:44:19.237Z,13.90
2018-08-27T04:46:47.852Z,14.00
2018-08-27T04:49:16.503Z,14.00
2018-08-27T04:51:45.082Z,14.10
2018-08-27T04:54:13.697Z,14.20
2018-08-27T04:56:42.222Z,14.10
2018-08-27T04:59:31.805Z,14.10
2018-08-27T05:02:00.377Z,14.10
2018-08-27T05:04:29.001Z,14.10
2018-08-27T05:06:57.552Z,14.10
2018-08-27T05:09:26.265Z,14.10
2018-08-27T05:11:54.832Z,14.10
2018-08-27T05:14:23.456Z,14.10
2018-08-27T05:16:52.008Z,14.20
2018-08-27T05:19:20.508Z,14.30
2018-08-27T05:21:49.225Z,14.30
2018-08-27T05:24:17.827Z,14.40
2018-08-27T05:26:46.401Z,14.40
2018-08-27T05:29:14.962Z,14.40
2018-08-27T05:31:43.538Z,14.50
2018-08-27T05:34:12.147Z,14.60
2018-08-27T05:36:40.785Z,14.60
2018-08-27T05:39:10.130Z,14.70
2018-08-27T05:41:39.005Z,14.70
2018-08-27T05:44:07.678Z,14.70
2018-08-27T05:46:36.293Z,14.80
2018-08-27T05:49:04.903Z,15.00
2018-08-27T05:51:33.496Z,15.10
2018-08-27T05:54:02.126Z,15.20
2018-08-27T05:56:30.694Z,15.30
2018-08-27T05:58:59.266Z,15.40
2018-08-27T06:01:27.836Z,15.50
2018-08-27T06:03:56.430Z,15.70
2018-08-27T06:06:25.017Z,15.80
2018-08-27T06:08:53.584Z,15.90
2018-08-27T06:11:22.145Z,15.90
2018-08-27T06:13:50.744Z,16.00
2018-08-27T06:16:19.548Z,16.10
2018-08-27T06:18:48.122Z,16.20
2018-08-27T06:21:16.739Z,16.10
2018-08-27T06:23:45.363Z,16.30
2018-08-27T06:26:13.882Z,16.40
2018-08-27T06:28:42.483Z,16.50
2018-08-27T06:31:11.023Z,16.50
2018-08-27T06:33:40.674Z,16.50
2018-08-27T06:36:09.276Z,16.60
2018-08-27T06:38:37.814Z,16.60
2018-08-27T06:41:06.574Z,16.70
2018-08-27T06:43:35.108Z,16.70
2018-08-27T06:46:03.715Z,16.70
2018-08-27T06:48:32.291Z,16.90
2018-08-27T06:51:01.058Z,17.10
2018-08-27T06:53:29.600Z,17.20
2018-08-27T06:55:58.182Z,17.40
2018-08-27T06:58:26.779Z,17.50
2018-08-27T07:00:55.410Z,17.70
2018-08-27T07:03:23.942Z,18.00
2018-08-27T07:05:53.572Z,18.40
2018-08-27T07:08:22.069Z,18.80
2018-08-27T07:10:50.660Z,19.10
2018-08-27T07:13:19.250Z,19.40
2018-08-27T07:15:47.819Z,19.50
2018-08-27T07:18:16.415Z,19.60
2018-08-27T07:20:45.028Z,19.70
2018-08-27T07:23:14.580Z,19.80
2018-08-27T07:25:43.162Z,20.10
2018-08-27T07:28:11.712Z,20.30
2018-08-27T07:30:40.285Z,20.30
2018-08-27T07:33:08.827Z,20.40
2018-08-27T07:35:37.472Z,20.50
2018-08-27T07:38:06.141Z,20.60
2018-08-27T07:40:34.857Z,20.70
2018-08-27T07:43:03.459Z,20.70
2018-08-27T07:45:32.038Z,20.80
2018-08-27T07:48:00.574Z,21.00
2018-08-27T07:50:29.227Z,21.40
2018-08-27T07:52:57.794Z,21.60
2018-08-27T07:55:26.417Z,21.70
2018-08-27T07:57:54.946Z,21.70
2018-08-27T08:00:24.816Z,22.00
2018-08-27T08:02:54.631Z,21.90
2018-08-27T08:05:23.337Z,22.10
2018-08-27T08:07:52.125Z,22.30
2018-08-27T08:10:21.233Z,22.50
2018-08-27T08:12:51.421Z,22.70
2018-08-27T08:15:20.604Z,22.80
2018-08-27T08:17:49.650Z,23.00
2018-08-27T08:20:18.582Z,23.20
2018-08-27T08:22:47.297Z,23.10
2018-08-27T08:25:15.930Z,22.90
2018-08-27T08:27:44.471Z,23.00
2018-08-27T08:30:13.062Z,23.10
2018-08-27T08:32:41.606Z,23.30
2018-08-27T08:35:10.252Z,23.30
2018-08-27T08:37:38.796Z,23.40
2018-08-27T08:40:07.413Z,23.20
2018-08-27T08:42:36.005Z,23.40
2018-08-27T08:45:04.664Z,23.30
2018-08-27T08:47:33.247Z,23.20
2018-08-27T08:50:01.818Z,23.30
2018-08-27T08:52:30.441Z,23.30
2018-08-27T08:54:58.979Z,23.30
2018-08-27T08:57:27.601Z,23.10
2018-08-27T08:59:56.228Z,23.10
2018-08-27T09:02:24.808Z,23.40
2018-08-27T09:04:53.382Z,23.40
2018-08-27T09:07:22.006Z,23.50
2018-08-27T09:09:50.543Z,23.60
2018-08-27T09:12:19.144Z,23.70
2018-08-27T09:14:47.705Z,23.70
2018-08-27T09:17:16.331Z,23.70
2018-08-27T09:19:44.935Z,23.40
2018-08-27T09:22:13.618Z,23.40
2018-08-27T09:24:42.183Z,23.60
2018-08-27T09:27:10.821Z,23.80
2018-08-27T09:29:39.386Z,23.90
2018-08-27T09:32:08.056Z,24.20
2018-08-27T09:34:36.582Z,24.70
2018-08-27T09:37:05.285Z,24.60
2018-08-27T09:39:33.805Z,24.50
2018-08-27T09:42:02.409Z,24.90
2018-08-27T09:44:30.998Z,24.80
2018-08-27T09:46:59.815Z,24.50
2018-08-27T09:49:28.235Z,24.30
2018-08-27T09:51:56.795Z,24.20
2018-08-27T09:54:25.384Z,24.40
2018-08-27T09:56:54.028Z,24.60
2018-08-27T09:59:22.585Z,24.30
2018-08-27T10:01:56.417Z,24.10
2018-08-27T10:04:24.990Z,24.10
2018-08-27T10:06:53.583Z,24.20
2018-08-27T10:09:22.115Z,24.20
2018-08-27T10:11:50.741Z,24.10
2018-08-27T10:14:19.356Z,24.10
2018-08-27T10:16:49.038Z,23.90
2018-08-27T10:19:17.662Z,23.70
2018-08-27T10:21:46.230Z,23.80
2018-08-27T10:24:14.728Z,24.10
2018-08-27T10:26:43.417Z,24.40
2018-08-27T10:29:12.073Z,24.50
2018-08-27T10:31:40.712Z,24.60
2018-08-27T10:34:09.326Z,24.70
2018-08-27T10:36:37.921Z,24.80
2018-08-27T10:39:08.213Z,24.90
2018-08-27T10:41:36.893Z,24.90
2018-08-27T10:44:05.630Z,24.70
2018-08-27T10:46:34.240Z,24.90
2018-08-27T10:49:02.874Z,24.80
2018-08-27T10:51:31.423Z,25.10
2018-08-27T10:54:00.038Z,25.50
2018-08-27T10:56:28.605Z,25.80
2018-08-27T10:58:57.249Z,26.00
2018-08-27T11:01:25.770Z,26.00
2018-08-27T11:03:55.445Z,26.30
2018-08-27T11:06:23.955Z,26.40
2018-08-27T11:08:52.679Z,26.50
2018-08-27T11:11:21.528Z,26.20
2018-08-27T11:13:50.131Z,25.90
2018-08-27T11:16:18.684Z,26.00
2018-08-27T11:18:47.467Z,26.00
2018-08-27T11:21:16.154Z,25.90
2018-08-27T11:23:44.788Z,25.80
2018-08-27T11:26:13.398Z,26.00
2018-08-27T11:28:41.943Z,25.80
2018-08-27T11:31:10.586Z,25.60
2018-08-27T11:33:39.117Z,25.70
2018-08-27T11:36:07.712Z,25.80
2018-08-27T11:38:36.307Z,25.80
2018-08-27T11:41:06.102Z,26.00
2018-08-27T11:43:34.728Z,26.30
2018-08-27T11:46:03.303Z,26.30
2018-08-27T11:48:31.949Z,26.20
2018-08-27T11:51:00.519Z,26.30
2018-08-27T11:53:29.143Z,26.10
2018-08-27T11:55:57.719Z,26.20
2018-08-27T11:58:26.305Z,26.20
2018-08-27T12:00:59.140Z,26.00
2018-08-27T12:03:27.806Z,25.90
2018-08-27T12:05:56.389Z,26.00
2018-08-27T12:08:24.974Z,26.30
2018-08-27T12:10:56.966Z,26.30
2018-08-27T12:13:25.581Z,26.40
2018-08-27T12:15:54.152Z,26.60
2018-08-27T12:18:22.818Z,26.90
2018-08-27T12:20:51.459Z,26.80
2018-08-27T12:23:20.027Z,26.90
2018-08-27T12:25:48.609Z,27.10
2018-08-27T12:28:17.206Z,27.30
2018-08-27T12:30:45.805Z,27.70
2018-08-27T12:33:14.358Z,28.00
2018-08-27T12:35:43.037Z,27.70
2018-08-27T12:38:11.623Z,27.60
2018-08-27T12:40:40.188Z,27.90
2018-08-27T12:43:08.808Z,28.00
2018-08-27T12:45:37.532Z,27.70
2018-08-27T12:48:06.166Z,27.60
2018-08-27T12:50:34.732Z,27.40
2018-08-27T12:53:03.315Z,27.40
2018-08-27T12:55:31.907Z,27.00
2018-08-27T12:58:00.534Z,26.30
2018-08-27T13:00:29.182Z,26.00
2018-08-27T13:02:57.800Z,26.00
2018-08-27T13:05:26.339Z,26.00
2018-08-27T13:07:54.964Z,26.00
2018-08-27T13:10:23.622Z,25.80
2018-08-27T13:12:52.293Z,25.70
2018-08-27T13:15:20.857Z,25.80
2018-08-27T13:17:49.501Z,25.90
2018-08-27T13:20:21.933Z,26.00
2018-08-27T13:22:50.589Z,26.00
2018-08-27T13:25:19.184Z,26.20
2018-08-27T13:27:47.781Z,26.30
2018-08-27T13:30:16.385Z,26.30
2018-08-27T13:32:44.998Z,26.40
2018-08-27T13:35:13.627Z,26.30
2018-08-27T13:37:42.184Z,26.20
2018-08-27T13:40:10.956Z,26.30
2018-08-27T13:42:39.469Z,26.40
2018-08-27T13:45:08.159Z,26.20
2018-08-27T13:47:40.547Z,26.20
2018-08-27T13:50:09.210Z,26.10
2018-08-27T13:52:37.808Z,26.10
2018-08-27T13:55:06.433Z,26.10
2018-08-27T13:57:35.054Z,26.00
2018-08-27T14:00:03.754Z,26.10
2018-08-27T14:02:32.295Z,26.10
2018-08-27T14:05:00.961Z,26.00
2018-08-27T14:07:30.515Z,26.10
2018-08-27T14:09:59.134Z,26.10
2018-08-27T14:12:27.795Z,26.10
2018-08-27T14:14:56.546Z,26.20
2018-08-27T14:17:25.113Z,26.00
2018-08-27T14:19:53.883Z,26.00
2018-08-27T14:22:22.354Z,25.80
2018-08-27T14:24:50.977Z,25.80
2018-08-27T14:27:19.568Z,26.00
2018-08-27T14:29:48.218Z,26.00
2018-08-27T14:32:16.793Z,26.20
2018-08-27T14:34:45.361Z,26.40
2018-08-27T14:37:13.950Z,26.50
2018-08-27T14:39:42.539Z,26.80
2018-08-27T14:42:11.146Z,26.80
2018-08-27T14:44:39.826Z,26.90
2018-08-27T14:47:08.393Z,26.70
2018-08-27T14:49:41.170Z,26.80
2018-08-27T14:52:09.861Z,26.70
2018-08-27T14:54:38.487Z,26.60
2018-08-27T14:57:07.078Z,26.60
2018-08-27T14:59:35.701Z,26.50
2018-08-27T15:02:04.317Z,26.50
2018-08-27T15:04:32.957Z,26.60
2018-08-27T15:07:01.609Z,26.70
2018-08-27T15:09:30.215Z,26.90
2018-08-27T15:11:58.810Z,26.90
2018-08-27T15:14:27.362Z,27.00
2018-08-27T15:16:57.023Z,27.10
2018-08-27T15:19:25.651Z,27.20
2018-08-27T15:21:54.301Z,27.40
2018-08-27T15:24:23.944Z,27.70
2018-08-27T15:26:52.539Z,27.80
2018-08-27T15:29:21.106Z,27.70
2018-08-27T15:31:49.645Z,27.30
2018-08-27T15:34:18.186Z,27.20
2018-08-27T15:36:46.808Z,26.90
2018-08-27T15:39:15.408Z,26.80
2018-08-27T15:41:44.013Z,26.80
2018-08-27T15:44:12.650Z,26.60
2018-08-27T15:46:41.334Z,26.60
2018-08-27T15:49:10.416Z,26.50
2018-08-27T15:51:39.499Z,26.30
2018-08-27T15:54:09.263Z,26.30
2018-08-27T15:56:38.174Z,26.20
2018-08-27T15:59:06.810Z,26.00
2018-08-27T16:01:35.507Z,25.80
2018-08-27T16:04:04.135Z,25.90
2018-08-27T16:06:32.771Z,25.90
2018-08-27T16:09:01.339Z,25.90
2018-08-27T16:11:29.948Z,25.90
2018-08-27T16:13:58.554Z,25.90
2018-08-27T16:16:27.187Z,25.90
2018-08-27T16:18:55.803Z,25.90
2018-08-27T16:21:24.466Z,25.90
2018-08-27T16:23:53.014Z,25.80
2018-08-27T16:26:21.665Z,25.70
2018-08-27T16:28:50.237Z,25.60
2018-08-27T16:31:18.854Z,25.50
2018-08-27T16:33:47.419Z,25.40
2018-08-27T16:36:16.057Z,25.30
2018-08-27T16:38:44.630Z,25.20
2018-08-27T16:41:14.298Z,25.00
2018-08-27T16:43:42.875Z,25.00
2018-08-27T16:46:11.467Z,24.90
2018-08-27T16:48:41.163Z,24.90
2018-08-27T16:51:09.884Z,24.80
2018-08-27T16:53:38.507Z,24.80
2018-08-27T16:56:07.208Z,24.80
2018-08-27T16:58:35.896Z,24.70
2018-08-27T17:01:04.474Z,24.70
2018-08-27T17:03:33.078Z,24.60
2018-08-27T17:06:01.665Z,24.60
2018-08-27T17:08:30.398Z,24.60
2018-08-27T17:10:59.040Z,24.60
2018-08-27T17:13:27.659Z,24.70
2018-08-27T17:15:56.333Z,24.70
2018-08-27T17:18:25.037Z,24.70
2018-08-27T17:20:53.644Z,24.70
2018-08-27T17:23:22.257Z,24.70
2018-08-27T17:25:50.914Z,24.80
2018-08-27T17:28:19.563Z,24.80
2018-08-27T17:30:50.249Z,24.90
2018-08-27T17:33:18.996Z,24.90
2018-08-27T17:35:47.597Z,24.90
2018-08-27T17:38:17.181Z,24.80
2018-08-27T17:40:49.544Z,24.80
2018-08-27T17:43:18.239Z,24.60
2018-08-27T17:45:46.935Z,24.50
2018-08-27T17:48:15.622Z,24.20
2018-08-27T17:50:44.440Z,24.10
2018-08-27T17:53:13.064Z,24.00
2018-08-27T17:55:41.633Z,23.80
2018-08-27T17:58:10.274Z,23.80
2018-08-27T18:00:39.917Z,23.80
2018-08-27T18:03:08.517Z,23.70
2018-08-27T18:05:37.068Z,23.60
2018-08-27T18:08:05.732Z,23.60
2018-08-27T18:10:34.307Z,23.50
2018-08-27T18:13:02.895Z,23.50
2018-08-27T18:15:31.460Z,23.40
2018-08-27T18:18:00.193Z,23.30
2018-08-27T18:20:28.794Z,23.30
2018-08-27T18:22:57.510Z,23.20
2018-08-27T18:25:26.117Z,23.10
2018-08-27T18:27:54.758Z,23.00
2018-08-27T18:30:23.402Z,23.00
2018-08-27T18:32:52.018Z,22.90
2018-08-27T18:35:20.705Z,22.90
2018-08-27T18:37:49.285Z,22.90
2018-08-27T18:40:17.870Z,22.90
2018-08-27T18:42:46.497Z,22.90
2018-08-27T18:45:15.123Z,22.80
2018-08-27T18:47:43.696Z,22.80
2018-08-27T18:50:12.456Z,22.80
2018-08-27T18:52:41.059Z,22.80
2018-08-27T18:55:09.740Z,22.80
2018-08-27T18:57:38.394Z,22.80
2018-08-27T19:00:07.001Z,22.80
2018-08-27T19:02:35.624Z,22.70
2018-08-27T19:05:04.379Z,22.70
2018-08-27T19:07:32.954Z,22.70
2018-08-27T19:10:01.549Z,22.60
2018-08-27T19:12:30.216Z,22.70
2018-08-27T19:15:02.442Z,22.70
2018-08-27T19:17:30.983Z,22.70
2018-08-27T19:19:59.712Z,22.70
2018-08-27T19:22:28.298Z,22.70
2018-08-27T19:24:56.968Z,22.80
2018-08-27T19:27:25.534Z,22.70
2018-08-27T19:29:54.163Z,22.70
2018-08-27T19:32:22.820Z,22.60
2018-08-27T19:34:51.384Z,22.50
2018-08-27T19:37:20.162Z,22.50
2018-08-27T19:39:48.724Z,22.40
2018-08-27T19:42:17.330Z,22.30
2018-08-27T19:44:45.929Z,22.30
2018-08-27T19:47:14.510Z,22.20
2018-08-27T19:49:43.158Z,22.10
2018-08-27T19:52:11.724Z,22.10
2018-08-27T19:54:40.379Z,22.10
2018-08-27T19:57:08.944Z,22.00
2018-08-27T19:59:37.582Z,22.00
2018-08-27T20:02:06.302Z,22.00
2018-08-27T20:04:34.892Z,22.00
2018-08-27T20:07:03.482Z,22.00
2018-08-27T20:09:32.159Z,22.10
2018-08-27T20:12:00.740Z,22.10
2018-08-27T20:14:29.439Z,22.00
2018-08-27T20:16:58.084Z,21.90
2018-08-27T20:19:26.691Z,21.80
2018-08-27T20:21:55.286Z,21.80
2018-08-27T20:24:23.875Z,21.80
2018-08-27T20:26:52.473Z,21.80
2018-08-27T20:29:21.068Z,21.80
2018-08-27T20:31:49.835Z,21.70
2018-08-27T20:34:18.474Z,21.60
2018-08-27T20:36:47.083Z,21.50
2018-08-27T20:39:15.782Z,21.40
2018-08-27T20:41:44.298Z,21.30
2018-08-27T20:44:12.904Z,21.30
2018-08-27T20:46:41.461Z,21.10
2018-08-27T20:49:10.141Z,21.00
2018-08-27T20:51:38.775Z,21.00
2018-08-27T20:54:07.364Z,20.70
2018-08-27T20:56:35.984Z,20.50
2018-08-27T20:59:04.662Z,20.50
2018-08-27T21:01:33.254Z,20.40
2018-08-27T21:04:01.834Z,20.40
2018-08-27T21:06:30.422Z,20.20
2018-08-27T21:08:58.953Z,19.90
2018-08-27T21:11:27.551Z,19.80
2018-08-27T21:14:02.243Z,19.70
2018-08-27T21:16:30.923Z,19.60
2018-08-27T21:18:59.520Z,19.60
2018-08-27T21:21:28.147Z,19.70
2018-08-27T21:23:56.783Z,19.60
2018-08-27T21:26:25.377Z,19.60
2018-08-27T21:28:54.060Z,19.50
2018-08-27T21:31:22.731Z,19.60
2018-08-27T21:33:51.287Z,19.60
2018-08-27T21:36:19.919Z,19.50
2018-08-27T21:38:48.543Z,19.40
2018-08-27T21:41:17.150Z,19.40
2018-08-27T21:43:45.727Z,19.40
2018-08-27T21:46:14.306Z,19.40
2018-08-27T21:48:42.870Z,19.40
2018-08-27T21:51:11.473Z,19.40
2018-08-27T21:53:40.018Z,19.50
2018-08-27T21:56:08.595Z,19.60
2018-08-27T21:58:37.178Z,19.60
2018-08-27T22:01:05.893Z,19.70
2018-08-27T22:03:39.816Z,19.70
2018-08-27T22:06:08.388Z,19.70
2018-08-27T22:08:36.986Z,19.80
2018-08-27T22:11:05.602Z,19.80
2018-08-27T22:13:34.213Z,19.70
2018-08-27T22:16:02.850Z,19.80
2018-08-27T22:18:31.466Z,19.80
2018-08-27T22:21:00.073Z,19.80
2018-08-27T22:23:30.261Z,19.80
2018-08-27T22:25:58.900Z,19.90
2018-08-27T22:28:27.625Z,20.00
2018-08-27T22:30:56.235Z,20.00
2018-08-27T22:33:24.804Z,20.00
2018-08-27T22:35:53.472Z,20.00
2018-08-27T22:38:22.165Z,20.10
2018-08-27T22:40:50.759Z,20.10
2018-08-27T22:43:19.369Z,20.10
2018-08-27T22:45:47.987Z,20.10
2018-08-27T22:48:16.541Z,20.00
2018-08-27T22:50:46.147Z,19.90
2018-08-27T22:53:14.729Z,19.90
2018-08-27T22:55:43.293Z,19.90
2018-08-27T22:58:11.871Z,19.80
2018-08-27T23:00:41.572Z,19.90
2018-08-27T23:04:18.163Z,19.70
2018-08-27T23:06:46.770Z,19.70
2018-08-27T23:09:15.342Z,19.60
2018-08-27T23:11:43.983Z,19.60
2018-08-27T23:14:12.598Z,19.60
2018-08-27T23:16:41.243Z,19.60
2018-08-27T23:19:09.933Z,19.60
2018-08-27T23:21:38.627Z,19.50
2018-08-27T23:24:07.235Z,19.50
2018-08-27T23:26:35.863Z,19.50
2018-08-27T23:29:04.435Z,19.40
2018-08-27T23:31:33.080Z,19.40
2018-08-27T23:34:01.691Z,19.40
2018-08-27T23:36:30.234Z,19.40
2018-08-27T23:38:58.844Z,19.40
2018-08-27T23:41:27.547Z,19.50
2018-08-27T23:43:56.161Z,19.50
2018-08-27T23:46:24.749Z,19.50
2018-08-27T23:48:53.394Z,19.40
2018-08-27T23:51:21.993Z,19.50
2018-08-27T23:53:50.581Z,19.50
2018-08-27T23:56:19.180Z,19.50
2018-08-27T23:58:47.763Z,19.40
